Time;durP1;ratioP1;P1;durP2;ratioP2;P2;SDS_P1;SDS_P2;PMS_P1;PMS_P2;Temp;Humidity;BMP_temperature;BMP_pressure;BME280_temperature;BME280_humidity;BME280_pressure;Samples;Min_cycle;Max_cycle;Signal;HPM_P1;HPM_P2
2022/05/05 00:01:54;;;;;;;10.98;9.00;;;12.70;99.90;;;;;;5052556;28;20176;-75
2022/05/05 00:04:22;;;;;;;9.73;8.93;;;12.70;99.90;;;;;;5050199;28;20210;-75
2022/05/05 00:06:48;;;;;;;9.63;8.63;;;12.70;99.90;;;;;;5062772;28;20290;-75
2022/05/05 00:09:13;;;;;;;9.73;8.82;;;12.60;99.90;;;;;;5055971;28;20180;-75
2022/05/05 00:14:24;;;;;;;10.02;8.82;;;12.60;99.90;;;;;;5051317;28;20255;-75
2022/05/05 00:16:57;;;;;;;9.82;8.93;;;12.50;99.90;;;;;;5052072;28;20196;-75
2022/05/05 00:19:23;;;;;;;10.07;9.07;;;12.50;99.90;;;;;;5039181;28;20182;-75
2022/05/05 00:21:49;;;;;;;9.50;8.70;;;12.50;99.90;;;;;;5057252;28;20187;-75
2022/05/05 00:24:16;;;;;;;9.07;8.38;;;12.50;99.90;;;;;;5052186;28;20184;-75
2022/05/05 00:26:42;;;;;;;7.70;7.10;;;12.50;99.90;;;;;;5053832;28;20273;-80
2022/05/05 00:29:08;;;;;;;8.38;7.55;;;12.50;99.90;;;;;;5054828;28;20198;-80
2022/05/05 00:31:34;;;;;;;9.38;8.48;;;12.50;99.90;;;;;;5051425;28;20290;-75
2022/05/05 00:33:59;;;;;;;9.23;8.20;;;12.60;99.90;;;;;;5052487;28;20231;-75
2022/05/05 00:36:25;;;;;;;10.27;9.02;;;12.50;99.90;;;;;;5052380;28;20208;-75
2022/05/05 00:38:51;;;;;;;10.30;9.30;;;12.50;99.90;;;;;;5054945;28;20283;-74
2022/05/05 00:41:17;;;;;;;10.40;9.45;;;12.40;99.90;;;;;;5052856;28;20176;-74
2022/05/05 00:43:43;;;;;;;10.35;9.35;;;12.50;99.90;;;;;;5052374;28;20642;-74
2022/05/05 00:46:09;;;;;;;9.88;8.98;;;12.50;99.90;;;;;;5049941;28;20208;-74
2022/05/05 00:48:34;;;;;;;11.00;9.95;;;12.50;99.90;;;;;;5053155;28;20184;-74
2022/05/05 00:51:00;;;;;;;11.70;10.02;;;12.50;99.90;;;;;;5055361;28;20208;-74
2022/05/05 00:53:26;;;;;;;14.40;13.10;;;12.40;99.90;;;;;;5052265;28;20271;-75
2022/05/05 00:55:55;;;;;;;11.55;10.25;;;12.30;99.90;;;;;;5053061;28;20203;-74
2022/05/05 00:58:24;;;;;;;12.00;10.90;;;12.40;99.90;;;;;;5049355;28;20196;-74
2022/05/05 01:00:50;;;;;;;11.32;10.27;;;12.30;99.90;;;;;;5051848;28;20266;-74
2022/05/05 01:03:16;;;;;;;11.40;10.20;;;12.20;99.90;;;;;;5052729;28;20202;-74
2022/05/05 01:05:43;;;;;;;10.63;9.68;;;12.20;99.90;;;;;;5053851;28;20215;-74
2022/05/05 01:08:09;;;;;;;11.52;10.40;;;12.20;99.90;;;;;;5051140;28;20333;-75
2022/05/05 01:10:35;;;;;;;10.50;9.55;;;12.20;99.90;;;;;;5050931;28;20214;-74
2022/05/05 01:13:01;;;;;;;11.25;10.20;;;12.20;99.90;;;;;;5053070;28;20546;-74
2022/05/05 01:15:28;;;;;;;11.25;9.45;;;12.20;99.90;;;;;;5044589;28;20208;-75
2022/05/05 01:17:54;;;;;;;10.40;9.32;;;12.20;99.90;;;;;;5052465;28;20182;-75
2022/05/05 01:20:24;;;;;;;9.73;8.93;;;12.20;99.90;;;;;;5052525;28;20271;-75
2022/05/05 01:22:50;;;;;;;9.57;8.68;;;12.20;99.90;;;;;;5056553;28;20562;-75
2022/05/05 01:28:10;;;;;;;9.65;8.75;;;12.10;99.90;;;;;;5053095;28;20688;-75
2022/05/05 01:30:44;;;;;;;9.27;8.48;;;12.20;99.90;;;;;;5050210;28;20627;-75
2022/05/05 01:33:10;;;;;;;8.70;7.90;;;12.20;99.90;;;;;;5034153;28;20176;-75
2022/05/05 01:35:36;;;;;;;8.23;7.63;;;12.20;99.90;;;;;;5050554;28;20242;-75
2022/05/05 01:38:02;;;;;;;8.77;8.07;;;12.10;99.90;;;;;;5055790;28;20180;-75
2022/05/05 01:40:29;;;;;;;9.52;8.55;;;12.00;99.90;;;;;;5052350;28;20188;-75
2022/05/05 01:42:55;;;;;;;8.35;7.65;;;12.00;99.90;;;;;;5042526;28;20270;-75
2022/05/05 01:45:20;;;;;;;9.10;8.30;;;11.90;99.90;;;;;;5050221;28;20310;-75
2022/05/05 01:47:46;;;;;;;8.95;8.15;;;11.80;99.90;;;;;;5051072;28;20849;-75
2022/05/05 01:50:12;;;;;;;9.50;8.50;;;11.80;99.90;;;;;;5050337;28;20247;-79
2022/05/05 01:52:37;;;;;;;9.52;8.73;;;11.80;99.90;;;;;;5049339;28;20222;-74
2022/05/05 01:55:04;;;;;;;10.13;9.32;;;11.80;99.90;;;;;;5049457;28;20650;-75
2022/05/05 01:57:29;;;;;;;9.15;8.45;;;11.90;99.90;;;;;;5052648;28;20223;-75
2022/05/05 01:59:55;;;;;;;8.48;7.68;;;11.90;99.90;;;;;;5047747;28;20175;-75
2022/05/05 02:02:21;;;;;;;8.00;7.30;;;11.90;99.90;;;;;;5038388;28;20206;-75
2022/05/05 02:04:46;;;;;;;8.55;7.65;;;11.80;99.90;;;;;;5056240;28;20557;-76
2022/05/05 02:07:12;;;;;;;8.15;7.35;;;11.70;99.90;;;;;;5054016;28;20272;-75
2022/05/05 02:09:37;;;;;;;7.80;7.00;;;11.80;99.90;;;;;;5056590;28;20187;-75
2022/05/05 02:12:05;;;;;;;8.55;7.68;;;11.70;99.90;;;;;;5049848;28;20199;-75
2022/05/05 02:14:30;;;;;;;8.00;7.38;;;11.70;99.90;;;;;;5048140;28;20184;-75
2022/05/05 02:16:56;;;;;;;8.27;7.57;;;11.70;99.90;;;;;;5055657;28;20199;-75
2022/05/05 02:19:21;;;;;;;7.53;6.93;;;11.60;99.90;;;;;;5048432;28;20265;-74
2022/05/05 02:21:47;;;;;;;7.93;7.32;;;11.60;99.90;;;;;;5047867;28;20768;-75
2022/05/05 02:24:12;;;;;;;7.47;6.90;;;11.70;99.90;;;;;;5038687;28;20183;-75
2022/05/05 02:26:38;;;;;;;7.68;7.03;;;11.70;99.90;;;;;;5057883;28;20689;-75
2022/05/05 02:29:04;;;;;;;7.40;6.70;;;11.70;99.90;;;;;;5045609;28;20259;-79
2022/05/05 02:31:29;;;;;;;6.60;6.20;;;11.60;99.90;;;;;;5041895;28;20218;-75
2022/05/05 02:33:55;;;;;;;7.43;6.75;;;11.40;99.90;;;;;;5042336;28;20225;-74
2022/05/05 02:39:05;;;;;;;6.85;6.35;;;11.30;99.90;;;;;;5049817;28;20275;-74
2022/05/05 02:41:30;;;;;;;7.25;6.65;;;11.20;99.90;;;;;;5046971;28;20263;-75
2022/05/05 02:43:56;;;;;;;7.32;6.63;;;11.10;99.90;;;;;;5044264;28;20857;-75
2022/05/05 02:46:21;;;;;;;6.65;6.13;;;11.00;99.90;;;;;;5040903;28;20208;-75
2022/05/05 02:48:47;;;;;;;6.72;6.22;;;11.00;99.90;;;;;;5044548;28;20246;-74
2022/05/05 02:51:12;;;;;;;7.07;6.40;;;10.90;99.90;;;;;;5050201;28;20243;-75
2022/05/05 02:56:22;;;;;;;6.57;6.03;;;10.80;99.90;;;;;;5046042;28;20254;-74
2022/05/05 02:58:48;;;;;;;6.80;6.30;;;10.70;99.90;;;;;;5053423;28;20187;-74
2022/05/05 03:01:13;;;;;;;6.78;6.28;;;10.70;99.90;;;;;;5045004;28;20223;-75
2022/05/05 03:03:39;;;;;;;6.75;6.25;;;10.60;99.90;;;;;;5043726;28;20194;-74
2022/05/05 03:06:05;;;;;;;7.05;6.47;;;10.60;99.90;;;;;;5048540;28;20287;-74
2022/05/05 03:08:31;;;;;;;6.53;5.93;;;10.50;99.90;;;;;;5046755;28;20271;-74
2022/05/05 03:10:56;;;;;;;8.32;7.63;;;10.50;99.90;;;;;;5044308;28;20306;-75
2022/05/05 03:13:22;;;;;;;6.97;6.47;;;10.50;99.90;;;;;;5045745;28;20222;-74
2022/05/05 03:15:47;;;;;;;7.65;7.00;;;10.60;99.90;;;;;;5031654;28;20203;-74
2022/05/05 03:18:13;;;;;;;8.27;7.53;;;10.60;99.90;;;;;;5052839;28;20191;-74
2022/05/05 03:20:38;;;;;;;7.55;7.00;;;10.70;99.90;;;;;;5055982;28;20183;-75
2022/05/05 03:23:04;;;;;;;7.07;6.47;;;10.60;99.90;;;;;;5061576;28;20625;-74
2022/05/05 03:25:30;;;;;;;6.97;6.47;;;10.60;99.90;;;;;;5055572;28;20187;-75
2022/05/05 03:27:56;;;;;;;7.57;6.82;;;10.60;99.90;;;;;;5043958;28;20695;-74
2022/05/05 03:30:22;;;;;;;7.22;6.63;;;10.50;99.90;;;;;;5045776;28;20207;-74
2022/05/05 03:32:48;;;;;;;7.53;6.93;;;10.40;99.90;;;;;;5048618;28;20630;-75
2022/05/05 03:35:14;;;;;;;8.00;6.63;;;10.30;99.90;;;;;;5042757;28;20267;-75
2022/05/05 03:37:39;;;;;;;6.95;6.45;;;10.30;99.90;;;;;;5043627;28;20717;-75
2022/05/05 03:40:05;;;;;;;6.40;5.80;;;10.20;99.90;;;;;;5048225;28;20232;-75
2022/05/05 03:42:31;;;;;;;7.18;6.57;;;10.20;99.90;;;;;;5055055;28;20195;-74
2022/05/05 03:44:56;;;;;;;7.18;6.47;;;10.00;99.90;;;;;;5055335;28;20176;-75
2022/05/05 03:47:22;;;;;;;6.28;5.75;;;10.00;99.90;;;;;;5053251;28;20204;-74
2022/05/05 03:49:48;;;;;;;7.03;6.53;;;9.90;99.90;;;;;;5055338;28;20729;-74
2022/05/05 03:52:13;;;;;;;6.43;5.93;;;9.90;99.90;;;;;;5054902;28;20208;-74
2022/05/05 03:54:41;;;;;;;7.10;6.50;;;9.80;99.90;;;;;;5056736;28;20308;-74
2022/05/05 03:57:06;;;;;;;6.95;6.35;;;9.80;99.90;;;;;;5055723;28;20210;-75
2022/05/05 03:59:38;;;;;;;6.65;6.05;;;9.70;99.90;;;;;;5052105;28;20183;-75
2022/05/05 04:02:04;;;;;;;7.00;6.40;;;9.70;99.90;;;;;;5049333;28;20221;-74
2022/05/05 04:04:29;;;;;;;6.63;6.00;;;9.80;99.90;;;;;;5051718;28;20188;-75
2022/05/05 04:06:55;;;;;;;6.57;5.95;;;9.80;99.90;;;;;;5051229;28;20196;-74
2022/05/05 04:09:20;;;;;;;6.72;5.85;;;9.90;99.90;;;;;;5048783;28;20187;-74
2022/05/05 04:11:46;;;;;;;6.65;6.15;;;10.00;99.90;;;;;;5050636;28;20235;-75
2022/05/05 04:14:12;;;;;;;6.68;6.10;;;10.00;99.90;;;;;;5059318;28;20232;-74
2022/05/05 04:16:38;;;;;;;6.97;6.28;;;10.10;99.90;;;;;;5057361;28;20192;-75
2022/05/05 04:19:04;;;;;;;6.90;6.22;;;10.10;99.90;;;;;;5040868;28;20194;-74
2022/05/05 04:21:31;;;;;;;7.20;6.60;;;10.10;99.90;;;;;;5054623;28;20211;-74
2022/05/05 04:23:57;;;;;;;6.45;5.95;;;10.10;99.90;;;;;;5054455;28;20231;-76
2022/05/05 04:26:24;;;;;;;6.75;6.25;;;10.10;99.90;;;;;;5059158;28;20241;-74
2022/05/05 04:28:51;;;;;;;7.35;6.53;;;10.10;99.90;;;;;;5060351;28;20184;-74
2022/05/05 04:31:20;;;;;;;6.70;6.20;;;10.10;99.90;;;;;;5052745;28;20587;-75
2022/05/05 04:33:45;;;;;;;7.55;6.85;;;10.10;99.90;;;;;;5053020;28;20515;-76
2022/05/05 04:36:12;;;;;;;7.75;7.13;;;10.20;99.90;;;;;;5056735;28;20291;-76
2022/05/05 04:38:37;;;;;;;7.50;6.90;;;10.20;99.90;;;;;;5057882;28;20176;-75
2022/05/05 04:41:03;;;;;;;7.55;6.85;;;10.30;99.90;;;;;;5048410;28;20198;-75
2022/05/05 04:43:29;;;;;;;7.53;6.93;;;10.30;99.90;;;;;;5053197;28;20667;-78
2022/05/05 04:45:55;;;;;;;8.20;7.40;;;10.30;99.90;;;;;;5049340;28;20349;-78
2022/05/05 04:48:21;;;;;;;7.32;6.63;;;10.40;99.90;;;;;;5055307;28;20548;-77
2022/05/05 04:50:46;;;;;;;6.70;5.90;;;10.40;99.90;;;;;;5052662;28;20291;-78
2022/05/05 04:53:12;;;;;;;6.95;6.38;;;10.50;99.90;;;;;;5051924;28;20583;-78
2022/05/05 04:55:37;;;;;;;8.00;7.30;;;10.60;99.90;;;;;;5053523;28;20180;-78
2022/05/05 04:58:03;;;;;;;7.28;6.65;;;10.70;99.90;;;;;;5051212;28;20661;-77
2022/05/05 05:00:29;;;;;;;7.45;6.85;;;10.70;99.90;;;;;;5047500;28;20190;-77
2022/05/05 05:02:56;;;;;;;7.25;6.65;;;10.90;99.90;;;;;;5031700;28;20468;-77
2022/05/05 05:05:22;;;;;;;8.10;7.30;;;10.90;99.90;;;;;;5045282;28;20183;-78
2022/05/05 05:07:47;;;;;;;8.75;7.90;;;11.00;99.90;;;;;;5051396;28;20227;-74
2022/05/05 05:10:13;;;;;;;8.45;7.65;;;11.10;99.90;;;;;;5050373;28;20203;-74
2022/05/05 05:12:39;;;;;;;8.57;7.88;;;11.20;99.90;;;;;;5038904;28;20183;-76
2022/05/05 05:15:05;;;;;;;8.45;7.63;;;11.30;99.90;;;;;;5052549;28;20657;-75
2022/05/05 05:17:31;;;;;;;8.20;7.50;;;11.40;99.90;;;;;;5057930;28;20205;-78
2022/05/05 05:19:56;;;;;;;8.70;7.90;;;11.40;99.90;;;;;;5054206;28;20267;-75
2022/05/05 05:22:22;;;;;;;13.18;10.63;;;11.50;99.90;;;;;;5060761;28;20180;-75
2022/05/05 05:24:48;;;;;;;9.48;8.68;;;11.80;99.90;;;;;;5053625;28;20175;-74
2022/05/05 05:27:13;;;;;;;13.85;12.43;;;12.00;99.90;;;;;;5042847;28;20212;-75
2022/05/05 05:29:39;;;;;;;12.90;11.55;;;12.00;99.90;;;;;;5058377;28;20681;-75
2022/05/05 05:32:05;;;;;;;12.05;10.82;;;12.20;99.90;;;;;;5053621;28;20625;-76
2022/05/05 05:34:31;;;;;;;13.98;11.52;;;12.30;99.90;;;;;;5043810;28;20211;-75
2022/05/05 05:36:57;;;;;;;13.40;10.88;;;12.40;99.90;;;;;;5040388;28;20613;-75
2022/05/05 05:39:23;;;;;;;12.32;10.63;;;12.60;99.90;;;;;;5052271;28;20266;-77
2022/05/05 05:41:48;;;;;;;12.55;11.35;;;12.80;99.90;;;;;;5056689;28;20184;-76
2022/05/05 05:44:14;;;;;;;12.25;10.95;;;13.00;99.90;;;;;;5057524;28;20684;-76
2022/05/05 05:46:40;;;;;;;12.55;10.73;;;13.00;99.90;;;;;;5053561;28;20218;-77
2022/05/05 05:49:05;;;;;;;10.52;9.52;;;12.90;99.90;;;;;;5048659;28;20188;-77
2022/05/05 05:51:34;;;;;;;11.52;10.40;;;12.90;99.90;;;;;;5046264;28;20203;-77
2022/05/05 05:54:00;;;;;;;11.10;10.00;;;12.90;99.90;;;;;;5053858;28;20645;-76
2022/05/05 05:56:26;;;;;;;10.82;9.77;;;12.90;99.90;;;;;;5046713;28;20208;-74
2022/05/05 05:58:52;;;;;;;12.52;9.88;;;12.80;99.90;;;;;;5040192;28;20322;-75
2022/05/05 06:01:17;;;;;;;11.05;10.05;;;12.90;99.90;;;;;;5050312;28;20179;-75
2022/05/05 06:03:56;;;;;;;10.73;9.77;;;13.10;99.90;;;;;;5053872;28;20247;-81
2022/05/05 06:06:23;;;;;;;10.52;9.63;;;13.30;99.90;;;;;;5050247;28;20199;-75
2022/05/05 06:08:50;;;;;;;11.45;10.40;;;13.60;99.90;;;;;;5049761;28;20274;-76
2022/05/05 06:11:21;;;;;;;13.15;11.95;;;13.80;99.90;;;;;;5050555;28;20207;-77
2022/05/05 06:13:48;;;;;;;13.02;11.73;;;14.00;99.90;;;;;;5053608;28;20550;-74
2022/05/05 06:16:14;;;;;;;11.82;10.73;;;14.30;99.90;;;;;;5045907;28;20199;-74
2022/05/05 06:18:40;;;;;;;12.25;11.13;;;14.30;99.90;;;;;;5043444;28;20183;-74
2022/05/05 06:21:06;;;;;;;12.27;11.10;;;14.40;99.90;;;;;;5051413;28;20210;-73
2022/05/05 06:23:32;;;;;;;11.98;10.88;;;14.60;99.90;;;;;;5049358;28;20655;-74
2022/05/05 06:25:58;;;;;;;11.32;10.13;;;14.60;99.90;;;;;;5051504;28;20679;-74
2022/05/05 06:28:23;;;;;;;12.73;11.40;;;14.70;99.90;;;;;;5041289;28;20226;-74
2022/05/05 06:30:49;;;;;;;12.30;11.20;;;14.90;99.90;;;;;;5041920;28;20210;-74
2022/05/05 06:33:15;;;;;;;11.30;10.23;;;15.00;99.90;;;;;;5053088;28;20232;-74
2022/05/05 06:35:40;;;;;;;13.13;11.80;;;15.20;99.90;;;;;;5054989;28;20621;-74
2022/05/05 06:38:06;;;;;;;12.23;11.02;;;15.30;99.90;;;;;;5042390;28;20188;-77
2022/05/05 06:40:34;;;;;;;23.95;12.40;;;15.50;99.90;;;;;;5047175;28;20241;-74
2022/05/05 06:43:00;;;;;;;13.02;11.82;;;15.70;99.90;;;;;;5053936;28;20187;-74
2022/05/05 06:45:25;;;;;;;12.00;10.80;;;15.80;99.90;;;;;;5059725;28;20187;-76
2022/05/05 06:47:51;;;;;;;12.90;11.80;;;15.90;99.90;;;;;;5052807;28;20181;-76
2022/05/05 06:50:21;;;;;;;13.05;11.82;;;16.00;99.90;;;;;;5059987;28;20179;-77
2022/05/05 06:52:47;;;;;;;12.55;11.32;;;16.10;99.90;;;;;;5052110;28;20190;-75
2022/05/05 06:55:13;;;;;;;13.05;11.85;;;16.30;99.90;;;;;;5049909;28;20167;-77
2022/05/05 06:57:39;;;;;;;13.95;11.50;;;16.50;99.90;;;;;;5042210;28;20226;-80
2022/05/05 07:00:06;;;;;;;12.90;11.80;;;16.80;99.90;;;;;;5045288;28;20626;-78
2022/05/05 07:02:31;;;;;;;12.60;11.38;;;17.00;99.90;;;;;;5062716;28;20192;-78
2022/05/05 07:07:41;;;;;;;12.40;11.20;;;17.40;99.90;;;;;;5053621;28;20656;-79
2022/05/05 07:12:51;;;;;;;11.57;10.52;;;17.60;99.90;;;;;;5056144;28;20269;-80
2022/05/05 07:15:17;;;;;;;13.53;12.23;;;17.70;99.90;;;;;;5045871;28;20461;-78
2022/05/05 07:17:43;;;;;;;13.80;12.50;;;17.70;99.90;;;;;;5042836;28;20664;-78
2022/05/05 07:20:09;;;;;;;12.98;11.77;;;17.70;99.90;;;;;;5056953;28;20694;-78
2022/05/05 07:22:35;;;;;;;13.75;12.45;;;17.70;99.90;;;;;;5044943;28;20183;-79
2022/05/05 07:25:03;;;;;;;13.73;12.40;;;17.60;99.90;;;;;;5047864;28;20191;-79
2022/05/05 07:27:29;;;;;;;13.05;11.85;;;17.80;99.90;;;;;;5059251;28;20226;-79
2022/05/05 07:29:55;;;;;;;14.35;12.95;;;17.70;99.90;;;;;;5035974;28;20229;-79
2022/05/05 07:32:20;;;;;;;13.60;12.40;;;18.20;99.90;;;;;;5050890;28;20219;-80
2022/05/05 07:34:46;;;;;;;12.77;11.73;;;18.70;99.90;;;;;;5051451;28;20206;-80
2022/05/05 07:37:12;;;;;;;14.45;13.15;;;18.80;99.90;;;;;;5040610;28;20204;-79
2022/05/05 07:39:37;;;;;;;14.38;13.07;;;18.90;99.90;;;;;;5028164;28;20643;-77
2022/05/05 07:42:03;;;;;;;13.40;12.30;;;18.40;99.90;;;;;;5048116;28;20196;-76
2022/05/05 07:44:29;;;;;;;14.18;12.85;;;18.40;99.90;;;;;;5048199;28;20219;-76
2022/05/05 07:46:56;;;;;;;14.23;12.93;;;18.50;99.90;;;;;;5051468;28;20620;-77
2022/05/05 07:49:22;;;;;;;13.38;12.07;;;18.50;99.90;;;;;;5053007;28;20216;-77
2022/05/05 07:51:52;;;;;;;16.02;14.63;;;18.70;99.90;;;;;;5055983;28;20262;-76
2022/05/05 07:57:04;;;;;;;13.35;12.10;;;18.80;99.90;;;;;;5049706;28;20787;-76
2022/05/05 07:59:31;;;;;;;13.32;12.18;;;18.60;99.90;;;;;;5045535;28;20276;-76
2022/05/05 08:01:57;;;;;;;14.15;12.95;;;18.30;99.90;;;;;;5045698;28;20180;-75
2022/05/05 08:04:23;;;;;;;13.90;12.68;;;18.40;99.90;;;;;;5046212;28;20474;-77
2022/05/05 08:06:49;;;;;;;12.75;11.55;;;18.50;99.90;;;;;;5045232;28;20208;-77
2022/05/05 08:09:14;;;;;;;11.68;10.50;;;18.60;99.90;;;;;;5046664;28;20683;-76
2022/05/05 08:11:40;;;;;;;12.73;11.60;;;18.70;99.90;;;;;;5047523;28;20323;-77
2022/05/05 08:14:06;;;;;;;12.50;11.40;;;18.40;99.90;;;;;;5050242;28;20207;-80
2022/05/05 08:16:32;;;;;;;13.50;12.30;;;18.20;99.90;;;;;;5053769;28;20180;-78
2022/05/05 08:18:58;;;;;;;13.80;12.60;;;17.90;99.90;;;;;;5029594;28;20757;-78
2022/05/05 08:21:23;;;;;;;14.10;12.75;;;17.80;99.90;;;;;;5049177;28;20189;-78
2022/05/05 08:28:28;;;;;;;12.55;11.35;;;17.50;99.90;;;;;;5046595;28;20283;-79
2022/05/05 08:29:19;;;;;;;14.23;13.02;;;17.30;99.90;;;;;;5047138;28;20203;-74
2022/05/05 08:31:44;;;;;;;14.75;13.45;;;17.10;99.90;;;;;;5048486;28;20212;-74
2022/05/05 08:34:11;;;;;;;13.65;12.55;;;17.10;99.90;;;;;;5046989;28;20180;-73
2022/05/05 08:36:37;;;;;;;15.23;13.82;;;17.10;99.90;;;;;;5043729;28;20616;-74
2022/05/05 08:39:03;;;;;;;15.38;13.77;;;17.20;99.90;;;;;;5043659;28;20191;-79
2022/05/05 08:41:30;;;;;;;14.25;12.85;;;17.30;99.90;;;;;;5051001;28;20187;-76
2022/05/05 08:43:56;;;;;;;14.60;13.13;;;17.30;99.90;;;;;;5050650;28;20269;-78
2022/05/05 08:46:26;;;;;;;14.63;13.32;;;17.50;99.90;;;;;;5051727;28;20274;-75
2022/05/05 08:48:59;;;;;;;15.52;14.00;;;17.50;99.90;;;;;;5049159;28;20176;-75
2022/05/05 08:51:27;;;;;;;14.27;12.98;;;17.70;99.90;;;;;;5050003;28;20228;-74
2022/05/05 08:53:57;;;;;;;15.38;13.93;;;17.90;99.90;;;;;;5052235;28;20187;-76
2022/05/05 08:56:23;;;;;;;13.48;12.25;;;18.20;99.90;;;;;;5050437;28;20310;-74
2022/05/05 08:58:49;;;;;;;13.55;12.15;;;18.30;99.90;;;;;;5047060;28;20215;-75
2022/05/05 09:01:15;;;;;;;13.45;12.25;;;18.50;99.90;;;;;;5055116;28;20178;-75
2022/05/05 09:03:41;;;;;;;12.93;11.77;;;18.70;99.90;;;;;;5051998;28;20183;-76
2022/05/05 09:06:07;;;;;;;12.65;11.55;;;19.00;99.90;;;;;;5043976;28;20203;-76
2022/05/05 09:08:34;;;;;;;11.93;10.88;;;19.40;99.90;;;;;;5040233;28;20191;-75
2022/05/05 09:11:02;;;;;;;9.23;8.43;;;19.90;99.90;;;;;;5054127;28;20572;-75
2022/05/05 09:13:34;;;;;;;8.60;7.80;;;20.60;99.90;;;;;;5041661;28;20173;-75
2022/05/05 09:16:02;;;;;;;7.00;6.40;;;21.40;99.90;;;;;;5047785;28;20726;-77
2022/05/05 09:18:29;;;;;;;7.72;7.13;;;22.20;99.90;;;;;;5046231;28;20221;-76
2022/05/05 09:20:56;;;;;;;9.00;8.20;;;23.30;99.90;;;;;;5049882;28;20182;-76
2022/05/05 09:23:36;;;;;;;9.10;8.20;;;25.20;99.90;;;;;;5045684;28;20209;-75
2022/05/05 09:26:04;;;;;;;7.85;7.13;;;27.60;99.90;;;;;;5032383;28;20611;-77
2022/05/05 09:28:32;;;;;;;7.32;6.80;;;29.40;94.70;;;;;;5046457;28;20167;-76
2022/05/05 09:31:08;;;;;;;6.25;5.50;;;30.20;90.70;;;;;;5045104;28;20192;-74
2022/05/05 09:33:34;;;;;;;4.50;4.10;;;32.00;78.70;;;;;;5052855;28;20581;-76
2022/05/05 09:36:04;;;;;;;3.53;3.33;;;31.70;67.60;;;;;;5050021;28;20200;-76
2022/05/05 09:38:48;;;;;;;4.00;3.30;;;31.40;64.80;;;;;;5041582;28;20184;-74
2022/05/05 09:41:14;;;;;;;3.88;3.65;;;30.50;63.20;;;;;;5049796;28;20195;-76
2022/05/05 09:43:39;;;;;;;5.13;4.68;;;30.30;65.20;;;;;;5048154;28;20184;-75
2022/05/05 09:46:25;;;;;;;4.53;4.22;;;30.50;64.40;;;;;;5052867;28;20237;-75
2022/05/05 09:48:51;;;;;;;3.92;3.72;;;31.90;58.00;;;;;;5038608;28;20192;-75
2022/05/05 09:51:18;;;;;;;4.40;4.10;;;34.50;53.70;;;;;;5048912;28;20206;-81
2022/05/05 09:59:28;;;;;;;4.47;4.15;;;35.00;51.00;;;;;;5060122;28;20194;-82
2022/05/05 10:02:01;;;;;;;3.90;3.70;;;35.70;52.30;;;;;;5064837;28;20263;-81
2022/05/05 10:04:30;;;;;;;3.35;3.15;;;36.80;51.10;;;;;;5036063;28;20270;-74
2022/05/05 10:06:57;;;;;;;3.13;3.03;;;38.00;45.80;;;;;;5055780;28;20555;-74
2022/05/05 10:09:24;;;;;;;2.95;2.30;;;39.30;42.40;;;;;;5051266;28;20207;-74
2022/05/05 10:11:50;;;;;;;3.28;3.08;;;39.20;40.40;;;;;;5045071;28;20242;-73
2022/05/05 10:14:18;;;;;;;3.75;3.55;;;38.60;44.30;;;;;;5049226;28;20562;-70
2022/05/05 10:16:44;;;;;;;3.63;3.33;;;37.60;45.50;;;;;;5055347;28;20278;-71
2022/05/05 10:19:10;;;;;;;3.53;3.25;;;37.20;45.10;;;;;;5052726;28;20263;-72
2022/05/05 10:21:59;;;;;;;3.65;2.90;;;37.60;45.40;;;;;;5051818;28;20639;-71
2022/05/05 10:24:32;;;;;;;2.78;2.58;;;38.50;44.30;;;;;;5057833;28;20657;-70
2022/05/05 10:27:00;;;;;;;2.95;2.75;;;38.90;43.60;;;;;;5061511;28;20194;-70
2022/05/05 10:29:31;;;;;;;3.75;2.35;;;40.50;39.50;;;;;;5053280;28;20634;-69
2022/05/05 10:32:16;;;;;;;2.70;2.60;;;41.30;39.00;;;;;;5053418;28;20206;-70
2022/05/05 10:34:54;;;;;;;2.10;2.00;;;40.40;39.90;;;;;;5053777;28;20179;-70
2022/05/05 10:37:40;;;;;;;2.00;1.90;;;40.50;38.00;;;;;;5047237;28;20205;-70
2022/05/05 10:40:08;;;;;;;2.50;2.40;;;41.40;35.60;;;;;;5050881;28;20252;-69
2022/05/05 10:42:45;;;;;;;2.30;2.20;;;40.80;36.70;;;;;;5054219;28;20224;-70
2022/05/05 10:45:32;;;;;;;2.85;2.60;;;39.00;39.60;;;;;;5059659;28;20179;-70
2022/05/05 10:48:06;;;;;;;2.42;2.33;;;37.10;39.90;;;;;;5057621;28;20175;-71
2022/05/05 10:50:52;;;;;;;3.88;2.33;;;36.80;41.30;;;;;;5040224;28;20676;-70
2022/05/05 10:53:26;;;;;;;3.28;2.75;;;37.00;42.70;;;;;;5053181;28;20179;-69
2022/05/05 10:55:52;;;;;;;2.80;2.63;;;36.70;41.50;;;;;;5040500;28;20250;-70
2022/05/05 10:58:55;;;;;;;2.40;2.30;;;36.20;41.40;;;;;;5047225;28;20267;-70
2022/05/05 11:01:21;;;;;;;2.92;2.72;;;36.50;42.30;;;;;;5051381;28;20193;-69
2022/05/05 11:04:06;;;;;;;3.00;2.80;;;36.80;41.30;;;;;;5046045;28;20266;-71
2022/05/05 11:06:33;;;;;;;3.10;2.90;;;35.60;41.90;;;;;;5053478;28;20209;-71
2022/05/05 11:08:59;;;;;;;2.38;2.28;;;35.20;42.60;;;;;;5048177;28;20260;-72
2022/05/05 11:11:41;;;;;;;2.28;2.17;;;35.80;42.30;;;;;;5053106;28;20290;-71
2022/05/05 11:23:08;;;;;;;2.10;2.00;;;34.80;45.00;;;;;;5050261;28;20696;-71
2022/05/05 11:25:35;;;;;;;2.63;2.53;;;35.10;42.50;;;;;;5049277;28;20658;-73
2022/05/05 11:28:00;;;;;;;2.40;2.30;;;34.40;42.00;;;;;;5055476;28;20187;-70
2022/05/05 11:30:26;;;;;;;2.70;2.28;;;33.50;43.00;;;;;;5050457;28;20179;-72
2022/05/05 11:32:52;;;;;;;2.95;2.75;;;32.30;43.90;;;;;;5053427;28;20181;-74
2022/05/05 11:35:21;;;;;;;2.42;2.22;;;31.00;46.40;;;;;;5045232;28;20197;-71
2022/05/05 11:37:47;;;;;;;2.70;2.42;;;29.90;48.20;;;;;;5046329;28;20200;-71
2022/05/05 11:40:13;;;;;;;2.45;2.20;;;29.20;51.00;;;;;;5059173;28;20222;-73
2022/05/05 11:45:30;;;;;;;2.25;2.15;;;30.00;48.20;;;;;;5051863;28;20194;-73
2022/05/05 11:47:56;;;;;;;2.40;2.30;;;31.40;46.50;;;;;;5044737;28;20245;-73
2022/05/05 11:50:22;;;;;;;2.22;2.13;;;31.90;44.90;;;;;;5047560;28;20188;-72
2022/05/05 11:52:48;;;;;;;2.13;2.03;;;31.70;45.50;;;;;;5055598;28;20249;-73
2022/05/05 11:55:18;;;;;;;2.65;2.03;;;31.40;46.80;;;;;;5057316;28;20253;-74
2022/05/05 11:57:45;;;;;;;2.55;2.35;;;30.90;46.90;;;;;;5063472;28;20222;-72
2022/05/05 12:02:57;;;;;;;2.22;2.00;;;30.30;48.00;;;;;;5052467;28;20224;-73
2022/05/05 12:05:24;;;;;;;2.05;1.77;;;29.90;48.20;;;;;;5046819;28;20195;-72
2022/05/05 12:07:51;;;;;;;2.35;2.17;;;29.40;49.10;;;;;;5059311;28;20918;-72
2022/05/05 12:10:19;;;;;;;2.65;1.80;;;29.10;49.80;;;;;;5060108;28;20266;-75
2022/05/05 12:12:49;;;;;;;2.47;2.30;;;28.70;50.20;;;;;;5056678;28;20232;-76
2022/05/05 12:15:16;;;;;;;2.60;2.40;;;28.50;51.10;;;;;;5054735;28;20183;-74
2022/05/05 12:17:58;;;;;;;2.28;2.03;;;29.00;51.20;;;;;;5066173;28;20562;-74
2022/05/05 12:20:24;;;;;;;2.38;2.25;;;30.00;48.30;;;;;;5046993;28;20177;-74
2022/05/05 12:23:00;;;;;;;1.95;1.85;;;31.10;46.60;;;;;;5046432;28;20283;-69
2022/05/05 12:25:28;;;;;;;3.42;2.03;;;32.30;44.70;;;;;;5052926;28;20178;-69
2022/05/05 12:27:53;;;;;;;2.30;2.10;;;33.70;42.80;;;;;;5058350;28;20171;-70
2022/05/05 12:30:37;;;;;;;2.28;2.10;;;34.80;40.60;;;;;;5051740;28;20189;-70
2022/05/05 12:33:04;;;;;;;1.95;1.85;;;34.70;41.10;;;;;;5052634;28;20183;-70
2022/05/05 12:35:34;;;;;;;1.90;1.80;;;35.60;38.90;;;;;;5054959;28;20176;-70
2022/05/05 12:38:01;;;;;;;1.92;1.83;;;36.10;37.60;;;;;;5053614;28;20645;-71
2022/05/05 12:40:28;;;;;;;2.00;1.85;;;34.90;39.20;;;;;;5051985;28;20233;-72
2022/05/05 12:43:08;;;;;;;1.58;1.58;;;34.70;38.50;;;;;;5057479;28;20180;-71
2022/05/05 12:45:35;;;;;;;2.05;1.95;;;34.50;40.80;;;;;;5050222;28;20187;-71
2022/05/05 12:48:03;;;;;;;1.92;1.80;;;34.60;40.20;;;;;;5050112;28;20741;-71
2022/05/05 12:50:40;;;;;;;3.90;1.67;;;35.20;39.70;;;;;;5045044;28;20275;-71
2022/05/05 13:01:30;;;;;;;2.47;2.17;;;41.00;38.50;;;;;;5053797;28;20190;-74
2022/05/05 13:04:01;;;;;;;2.25;2.05;;;40.70;39.10;;;;;;5053527;28;20185;-74
2022/05/05 13:06:27;;;;;;;2.25;2.15;;;41.70;36.80;;;;;;5057581;28;20711;-80
2022/05/05 13:08:54;;;;;;;2.78;2.00;;;41.00;37.40;;;;;;5042548;28;20700;-78
2022/05/05 13:11:20;;;;;;;2.35;2.15;;;41.70;37.10;;;;;;5050183;28;20233;-76
2022/05/05 13:13:47;;;;;;;2.03;1.92;;;43.00;36.10;;;;;;5048290;28;20791;-76
2022/05/05 13:16:13;;;;;;;2.70;2.58;;;43.70;34.70;;;;;;5054915;28;20218;-74
2022/05/05 13:18:39;;;;;;;2.50;2.20;;;45.30;34.10;;;;;;5047439;28;20176;-75
2022/05/05 13:21:06;;;;;;;1.88;1.80;;;46.40;32.80;;;;;;5055090;28;20182;-75
2022/05/05 13:23:31;;;;;;;2.72;2.47;;;44.50;33.40;;;;;;5058812;28;20191;-74
2022/05/05 13:25:57;;;;;;;1.90;1.85;;;44.70;33.70;;;;;;5033992;28;20269;-77
2022/05/05 13:28:23;;;;;;;2.30;2.20;;;44.60;33.70;;;;;;5049472;28;20183;-71
2022/05/05 13:30:49;;;;;;;1.90;1.80;;;44.20;33.50;;;;;;5048158;28;20199;-72
2022/05/05 13:33:14;;;;;;;2.13;2.03;;;44.20;34.00;;;;;;5050969;28;20300;-73